createdAt,value
2019-05-20T00:02:24.379Z,9.70
2019-05-20T00:04:38.059Z,9.80
2019-05-20T00:07:04.846Z,9.80
2019-05-20T00:09:32.077Z,9.90
2019-05-20T00:11:58.772Z,9.90
2019-05-20T00:14:25.483Z,9.90
2019-05-20T00:16:52.205Z,9.90
2019-05-20T00:19:18.947Z,9.80
2019-05-20T00:21:45.655Z,9.80
2019-05-20T00:24:13.135Z,9.70
2019-05-20T00:26:39.923Z,9.70
2019-05-20T00:29:06.669Z,9.70
2019-05-20T00:31:33.370Z,9.60
2019-05-20T00:34:00.116Z,9.60
2019-05-20T00:36:26.868Z,9.60
2019-05-20T00:38:59.780Z,9.50
2019-05-20T00:41:26.495Z,9.50
2019-05-20T00:44:08.091Z,9.50
2019-05-20T00:46:34.823Z,9.50
2019-05-20T00:49:01.573Z,9.40
2019-05-20T00:51:28.254Z,9.40
2019-05-20T00:53:55.741Z,9.30
2019-05-20T00:56:22.437Z,9.30
2019-05-20T00:58:49.129Z,9.30
2019-05-20T01:01:15.880Z,9.30
2019-05-20T01:03:42.573Z,9.20
2019-05-20T01:06:10.013Z,9.20
2019-05-20T01:08:36.747Z,9.20
2019-05-20T01:11:04.369Z,9.20
2019-05-20T01:13:31.419Z,9.10
2019-05-20T01:15:58.139Z,9.10
2019-05-20T01:18:24.836Z,9.10
2019-05-20T01:20:51.592Z,9.00
2019-05-20T01:23:19.053Z,9.00
2019-05-20T01:25:46.507Z,9.00
2019-05-20T01:28:13.308Z,8.90
2019-05-20T01:30:40.431Z,9.00
2019-05-20T01:33:13.735Z,9.00
2019-05-20T01:38:45.833Z,9.00
2019-05-20T01:41:13.771Z,9.00
2019-05-20T01:43:40.541Z,9.00
2019-05-20T01:46:07.408Z,8.90
2019-05-20T01:48:34.137Z,8.90
2019-05-20T01:51:00.844Z,8.90
2019-05-20T01:53:27.556Z,8.80
2019-05-20T01:55:54.900Z,8.80
2019-05-20T01:58:22.338Z,8.80
2019-05-20T02:00:49.121Z,8.80
2019-05-20T02:03:30.265Z,8.70
2019-05-20T02:05:43.441Z,8.70
2019-05-20T02:08:10.191Z,8.70
2019-05-20T02:10:36.867Z,8.70
2019-05-20T02:13:03.631Z,8.80
2019-05-20T02:15:40.990Z,8.80
2019-05-20T02:18:07.764Z,8.80
2019-05-20T02:20:34.556Z,8.80
2019-05-20T02:23:07.365Z,8.90
2019-05-20T02:25:34.070Z,9.00
2019-05-20T02:28:00.771Z,9.00
2019-05-20T02:30:28.294Z,9.10
2019-05-20T02:32:55.053Z,9.10
2019-05-20T02:35:22.562Z,9.20
2019-05-20T02:37:49.272Z,9.20
2019-05-20T02:40:16.878Z,9.40
2019-05-20T02:42:44.498Z,9.40
2019-05-20T02:45:11.259Z,9.40
2019-05-20T02:47:37.985Z,9.40
2019-05-20T02:50:04.748Z,9.40
2019-05-20T02:52:31.482Z,9.50
2019-05-20T02:54:58.244Z,9.50
2019-05-20T02:57:24.917Z,9.50
2019-05-20T02:59:52.360Z,9.80
2019-05-20T03:02:19.090Z,9.80
2019-05-20T03:04:45.798Z,9.90
2019-05-20T03:07:12.503Z,10.00
2019-05-20T03:09:39.962Z,10.40
2019-05-20T03:12:07.458Z,10.70
2019-05-20T03:14:34.185Z,10.60
2019-05-20T03:17:00.956Z,10.90
2019-05-20T03:19:27.671Z,11.00
2019-05-20T03:21:54.387Z,11.10
2019-05-20T03:24:21.857Z,11.40
2019-05-20T03:26:48.622Z,11.40
2019-05-20T03:29:15.373Z,11.40
2019-05-20T03:31:43.036Z,11.40
2019-05-20T03:34:09.911Z,11.40
2019-05-20T03:36:37.438Z,11.40
2019-05-20T03:39:04.261Z,11.30
2019-05-20T03:41:31.123Z,11.40
2019-05-20T03:43:58.621Z,11.40
2019-05-20T03:46:25.366Z,11.40
2019-05-20T03:48:52.063Z,11.50
2019-05-20T03:51:18.804Z,11.50
2019-05-20T03:53:45.537Z,11.70
2019-05-20T03:56:12.270Z,11.70
2019-05-20T03:58:39.021Z,11.80
2019-05-20T04:01:05.761Z,11.90
2019-05-20T04:03:32.606Z,12.00
2019-05-20T04:05:59.315Z,12.00
2019-05-20T04:08:26.164Z,12.20
2019-05-20T04:10:52.883Z,12.20
2019-05-20T04:13:20.357Z,12.50
2019-05-20T04:15:47.105Z,12.50
2019-05-20T04:18:14.153Z,12.70
2019-05-20T04:20:40.961Z,12.90
2019-05-20T04:23:07.729Z,13.00
2019-05-20T04:25:34.676Z,13.20
2019-05-20T04:28:01.857Z,13.10
2019-05-20T04:30:28.596Z,13.20
2019-05-20T04:32:55.376Z,13.40
2019-05-20T04:35:23.555Z,13.50
2019-05-20T04:37:48.904Z,13.60
2019-05-20T04:40:15.666Z,13.30
2019-05-20T04:42:42.346Z,13.50
2019-05-20T04:45:09.224Z,13.70
2019-05-20T04:47:36.060Z,13.60
2019-05-20T04:50:04.522Z,13.60
2019-05-20T04:52:32.141Z,13.40
2019-05-20T04:54:59.635Z,13.20
2019-05-20T04:57:27.122Z,13.10
2019-05-20T04:59:53.913Z,13.10
2019-05-20T05:02:20.606Z,13.10
2019-05-20T05:04:47.318Z,12.90
2019-05-20T05:07:14.855Z,13.10
2019-05-20T05:09:41.555Z,13.10
2019-05-20T05:12:08.259Z,13.10
2019-05-20T05:14:35.793Z,13.40
2019-05-20T05:17:02.514Z,13.30
2019-05-20T05:19:29.326Z,13.70
2019-05-20T05:21:56.110Z,13.90
2019-05-20T05:24:22.974Z,14.10
2019-05-20T05:26:50.124Z,14.40
2019-05-20T05:29:16.891Z,14.70
2019-05-20T05:31:44.345Z,15.10
2019-05-20T05:34:11.184Z,15.10
2019-05-20T05:36:38.624Z,15.50
2019-05-20T05:39:06.277Z,15.70
2019-05-20T05:41:33.890Z,16.00
2019-05-20T05:44:00.594Z,16.00
2019-05-20T05:46:27.350Z,15.90
2019-05-20T05:48:54.101Z,16.00
2019-05-20T05:51:20.822Z,16.00
2019-05-20T05:53:47.635Z,16.60
2019-05-20T05:56:15.885Z,17.60
2019-05-20T05:58:42.635Z,17.60
2019-05-20T06:01:09.390Z,18.00
2019-05-20T06:03:36.076Z,17.60
2019-05-20T06:06:12.156Z,17.70
2019-05-20T06:08:29.709Z,18.00
2019-05-20T06:10:56.387Z,17.90
2019-05-20T06:13:23.851Z,18.30
2019-05-20T06:16:05.483Z,18.30
2019-05-20T06:18:32.225Z,18.70
2019-05-20T06:20:58.989Z,19.00
2019-05-20T06:23:25.686Z,18.90
2019-05-20T06:25:52.390Z,20.10
2019-05-20T06:28:19.891Z,21.50
2019-05-20T06:30:47.422Z,20.60
2019-05-20T06:33:14.202Z,20.50
2019-05-20T06:35:41.021Z,21.60
2019-05-20T06:41:03.789Z,23.80
2019-05-20T06:43:30.541Z,23.70
2019-05-20T06:45:57.279Z,23.60
2019-05-20T06:48:24.794Z,25.50
2019-05-20T06:50:52.281Z,26.30
2019-05-20T06:53:18.993Z,26.20
2019-05-20T06:55:46.466Z,27.80
2019-05-20T06:58:13.210Z,27.70
2019-05-20T07:00:40.756Z,27.40
2019-05-20T07:03:08.269Z,27.60
2019-05-20T07:05:35.023Z,27.50
2019-05-20T07:08:02.193Z,27.10
2019-05-20T07:10:29.717Z,23.50
2019-05-20T07:12:56.428Z,23.40
2019-05-20T07:15:23.185Z,23.50
2019-05-20T07:17:49.867Z,23.70
2019-05-20T07:20:17.415Z,22.40
2019-05-20T07:22:55.274Z,22.40
2019-05-20T07:25:11.059Z,22.40
2019-05-20T07:27:37.864Z,22.80
2019-05-20T07:30:04.655Z,22.30
2019-05-20T07:32:31.411Z,21.30
2019-05-20T07:34:58.116Z,21.10
2019-05-20T07:37:24.856Z,21.60
2019-05-20T07:39:51.986Z,21.10
2019-05-20T07:42:18.766Z,22.10
2019-05-20T07:45:00.471Z,22.50
2019-05-20T07:47:28.031Z,22.70
2019-05-20T07:49:55.577Z,23.10
2019-05-20T07:52:22.675Z,23.10
2019-05-20T07:54:50.175Z,21.40
2019-05-20T07:57:17.064Z,21.30
2019-05-20T07:59:43.947Z,20.90
2019-05-20T08:02:10.711Z,21.30
2019-05-20T08:04:37.679Z,21.50
2019-05-20T08:07:26.060Z,21.90
2019-05-20T08:09:32.387Z,21.90
2019-05-20T08:11:59.138Z,21.60
2019-05-20T08:14:26.641Z,21.40
2019-05-20T08:16:53.451Z,21.40
2019-05-20T08:19:20.922Z,20.90
2019-05-20T08:21:48.457Z,21.20
2019-05-20T08:24:15.199Z,21.20
2019-05-20T08:26:41.920Z,21.10
2019-05-20T08:29:08.656Z,21.00
2019-05-20T08:31:35.376Z,21.20
2019-05-20T08:34:02.121Z,21.10
2019-05-20T08:36:28.829Z,21.80
2019-05-20T08:38:55.544Z,21.40
2019-05-20T08:41:22.361Z,21.00
2019-05-20T08:43:49.031Z,21.50
2019-05-20T08:46:15.766Z,21.00
2019-05-20T08:48:42.550Z,21.10
2019-05-20T08:51:09.322Z,20.30
2019-05-20T08:53:36.021Z,21.20
2019-05-20T08:56:02.818Z,21.80
2019-05-20T08:58:29.521Z,22.10
2019-05-20T09:00:56.247Z,22.50
2019-05-20T09:03:23.682Z,22.10
2019-05-20T09:05:51.177Z,22.90
2019-05-20T09:08:17.918Z,22.90
2019-05-20T09:10:44.600Z,23.40
2019-05-20T09:13:11.422Z,23.10
2019-05-20T09:15:38.117Z,23.20
2019-05-20T09:18:05.589Z,22.90
2019-05-20T09:20:32.304Z,22.90
2019-05-20T09:23:02.637Z,22.30
2019-05-20T09:25:27.632Z,22.30
2019-05-20T09:27:55.090Z,23.40
2019-05-20T09:30:22.902Z,23.80
2019-05-20T09:32:49.598Z,23.80
2019-05-20T09:35:17.127Z,24.00
2019-05-20T09:37:43.855Z,24.00
2019-05-20T09:40:10.777Z,24.40
2019-05-20T09:42:40.639Z,24.70
2019-05-20T09:45:04.778Z,24.90
2019-05-20T09:47:31.537Z,24.60
2019-05-20T09:49:58.587Z,24.10
2019-05-20T09:52:25.419Z,24.30
2019-05-20T09:54:52.323Z,24.20
2019-05-20T09:57:19.100Z,24.70
2019-05-20T09:59:45.779Z,25.30
2019-05-20T10:02:13.274Z,25.50
2019-05-20T10:04:40.285Z,25.50
2019-05-20T10:07:07.123Z,24.90
2019-05-20T10:09:33.906Z,25.30
2019-05-20T10:12:00.619Z,25.00
2019-05-20T10:14:28.154Z,25.50
2019-05-20T10:16:55.626Z,26.00
2019-05-20T10:19:23.242Z,25.90
2019-05-20T10:21:50.073Z,25.80
2019-05-20T10:24:16.792Z,24.80
2019-05-20T10:26:43.547Z,24.50
2019-05-20T10:29:10.275Z,24.90
2019-05-20T10:31:37.044Z,24.90
2019-05-20T10:34:04.586Z,25.00
2019-05-20T10:36:31.368Z,24.90
2019-05-20T10:38:59.522Z,24.70
2019-05-20T10:41:25.018Z,24.70
2019-05-20T10:43:51.714Z,24.60
2019-05-20T10:46:18.573Z,25.10
2019-05-20T10:48:45.682Z,25.60
2019-05-20T10:51:12.519Z,25.90
2019-05-20T10:53:39.273Z,25.20
2019-05-20T10:56:06.047Z,25.50
2019-05-20T10:58:32.965Z,24.90
2019-05-20T11:01:03.056Z,24.30
2019-05-20T11:03:27.295Z,24.30
2019-05-20T11:05:54.726Z,24.20
2019-05-20T11:08:21.478Z,24.20
2019-05-20T11:10:48.249Z,24.40
2019-05-20T11:13:14.945Z,25.10
2019-05-20T11:15:41.720Z,25.30
2019-05-20T11:18:08.988Z,25.20
2019-05-20T11:20:36.013Z,24.90
2019-05-20T11:23:03.545Z,24.80
2019-05-20T11:25:31.027Z,24.80
2019-05-20T11:27:58.894Z,25.00
2019-05-20T11:30:25.694Z,24.90
2019-05-20T11:32:52.389Z,24.60
2019-05-20T11:35:19.184Z,25.30
2019-05-20T11:37:46.012Z,25.10
2019-05-20T11:40:13.529Z,25.20
2019-05-20T11:42:39.793Z,25.50
2019-05-20T11:45:06.604Z,25.70
2019-05-20T11:47:33.371Z,25.60
2019-05-20T11:50:00.159Z,25.30
2019-05-20T11:52:26.977Z,25.30
2019-05-20T11:54:53.682Z,25.20
2019-05-20T11:57:21.012Z,25.00
2019-05-20T11:59:48.514Z,25.10
2019-05-20T12:02:16.718Z,25.50
2019-05-20T12:04:43.442Z,25.50
2019-05-20T12:07:10.474Z,24.80
2019-05-20T12:09:49.193Z,24.70
2019-05-20T12:12:04.065Z,25.10
2019-05-20T12:14:30.753Z,25.30
2019-05-20T12:16:58.976Z,25.10
2019-05-20T12:19:25.744Z,25.00
2019-05-20T12:21:53.324Z,25.10
2019-05-20T12:24:20.117Z,25.10
2019-05-20T12:26:46.916Z,24.90
2019-05-20T12:29:14.750Z,25.20
2019-05-20T12:31:41.705Z,25.10
2019-05-20T12:34:08.812Z,25.30
2019-05-20T12:36:35.530Z,25.30
2019-05-20T12:39:02.369Z,25.20
2019-05-20T12:41:29.289Z,25.40
2019-05-20T12:44:10.901Z,25.20
2019-05-20T12:46:22.807Z,25.00
2019-05-20T12:48:49.654Z,25.30
2019-05-20T12:51:16.434Z,25.20
2019-05-20T12:53:43.205Z,25.10
2019-05-20T12:56:10.069Z,24.90
2019-05-20T12:58:36.786Z,24.60
2019-05-20T13:01:03.597Z,24.60
2019-05-20T13:03:30.481Z,24.70
2019-05-20T13:05:57.375Z,24.90
2019-05-20T13:08:24.114Z,25.20
2019-05-20T13:10:50.887Z,24.90
2019-05-20T13:13:18.008Z,24.90
2019-05-20T13:15:44.925Z,24.90
2019-05-20T13:18:11.635Z,25.10
2019-05-20T13:20:38.418Z,24.90
2019-05-20T13:23:07.571Z,24.60
2019-05-20T13:25:32.105Z,24.30
2019-05-20T13:27:58.903Z,24.30
2019-05-20T13:30:25.714Z,24.40
2019-05-20T13:32:53.951Z,24.30
2019-05-20T13:35:20.753Z,24.30
2019-05-20T13:37:47.473Z,23.80
2019-05-20T13:40:14.297Z,23.80
2019-05-20T13:42:41.045Z,23.60
2019-05-20T13:45:08.639Z,23.50
2019-05-20T13:47:35.466Z,23.70
2019-05-20T13:50:02.208Z,23.80
2019-05-20T13:52:28.909Z,24.00
2019-05-20T13:54:55.663Z,24.10
2019-05-20T13:57:23.116Z,23.70
2019-05-20T13:59:49.918Z,23.30
2019-05-20T14:02:17.349Z,23.50
2019-05-20T14:04:44.083Z,23.50
2019-05-20T14:07:10.818Z,23.50
2019-05-20T14:09:37.688Z,23.80
2019-05-20T14:12:04.408Z,23.80
2019-05-20T14:14:31.398Z,23.40
2019-05-20T14:16:58.841Z,23.30
2019-05-20T14:19:26.365Z,23.50
2019-05-20T14:21:53.114Z,23.50
2019-05-20T14:24:19.842Z,23.50
2019-05-20T14:26:47.278Z,23.90
2019-05-20T14:29:14.020Z,23.90
2019-05-20T14:31:40.801Z,23.80
2019-05-20T14:34:07.538Z,23.70
2019-05-20T14:36:40.053Z,23.70
2019-05-20T14:39:01.128Z,23.50
2019-05-20T14:41:28.107Z,23.40
2019-05-20T14:43:54.869Z,23.30
2019-05-20T14:46:21.618Z,23.30
2019-05-20T14:48:48.395Z,23.30
2019-05-20T14:51:15.965Z,23.60
2019-05-20T14:53:43.487Z,23.50
2019-05-20T14:56:11.134Z,23.60
2019-05-20T14:58:37.871Z,23.60
2019-05-20T15:01:04.571Z,23.70
2019-05-20T15:03:31.258Z,23.60
2019-05-20T15:05:58.188Z,23.60
2019-05-20T15:08:24.903Z,23.30
2019-05-20T15:10:52.401Z,23.20
2019-05-20T15:13:19.091Z,23.20
2019-05-20T15:15:48.563Z,23.20
2019-05-20T15:18:13.370Z,23.20
2019-05-20T15:20:40.101Z,23.40
2019-05-20T15:23:06.853Z,23.50
2019-05-20T15:25:33.766Z,23.60
2019-05-20T15:28:00.549Z,23.50
2019-05-20T15:30:27.270Z,23.10
2019-05-20T15:32:54.894Z,23.00
2019-05-20T15:35:21.041Z,23.20
2019-05-20T15:37:47.718Z,23.20
2019-05-20T15:40:14.448Z,23.10
2019-05-20T15:42:41.251Z,23.10
2019-05-20T15:45:08.656Z,23.20
2019-05-20T15:47:35.383Z,23.00
2019-05-20T15:50:03.837Z,22.90
2019-05-20T15:52:29.140Z,22.80
2019-05-20T15:54:55.880Z,22.60
2019-05-20T15:57:23.825Z,22.60
2019-05-20T15:59:50.593Z,22.60
2019-05-20T16:02:17.307Z,22.70
2019-05-20T16:04:43.998Z,22.40
2019-05-20T16:07:10.771Z,22.30
2019-05-20T16:09:37.651Z,22.20
2019-05-20T16:12:04.414Z,22.30
2019-05-20T16:14:31.917Z,22.20
2019-05-20T16:16:59.386Z,22.20
2019-05-20T16:19:26.104Z,22.20
2019-05-20T16:21:53.648Z,21.90
2019-05-20T16:24:21.225Z,21.80
2019-05-20T16:26:48.716Z,21.80
2019-05-20T16:29:15.489Z,21.80
2019-05-20T16:31:42.222Z,21.90
2019-05-20T16:34:08.929Z,21.90
2019-05-20T16:36:35.720Z,21.80
2019-05-20T16:39:03.654Z,21.60
2019-05-20T16:41:30.658Z,21.60
2019-05-20T16:43:57.485Z,21.40
2019-05-20T16:46:24.261Z,21.30
2019-05-20T16:48:51.061Z,21.50
2019-05-20T16:51:17.841Z,21.20
2019-05-20T16:53:44.602Z,21.30
2019-05-20T16:56:11.349Z,21.30
2019-05-20T16:58:38.131Z,21.30
2019-05-20T17:01:07.081Z,21.10
2019-05-20T17:03:33.983Z,21.10
2019-05-20T17:06:00.717Z,21.00
2019-05-20T17:08:27.554Z,21.00
2019-05-20T17:10:54.305Z,21.10
2019-05-20T17:13:21.833Z,20.90
2019-05-20T17:15:48.529Z,20.80
2019-05-20T17:18:16.000Z,20.70
2019-05-20T17:20:45.927Z,20.70
2019-05-20T17:23:09.914Z,20.60
2019-05-20T17:25:36.861Z,20.60
2019-05-20T17:28:03.658Z,20.50
2019-05-20T17:30:44.283Z,20.30
2019-05-20T17:32:58.028Z,20.30
2019-05-20T17:35:24.739Z,20.30
2019-05-20T17:37:54.908Z,20.20
2019-05-20T17:40:18.678Z,20.10
2019-05-20T17:42:45.418Z,20.10
2019-05-20T17:45:12.391Z,20.10
2019-05-20T17:47:39.619Z,20.00
2019-05-20T17:50:07.521Z,19.90
2019-05-20T17:52:35.347Z,19.80
2019-05-20T17:55:03.032Z,19.80
2019-05-20T17:57:30.501Z,19.80
2019-05-20T17:59:57.554Z,19.80
2019-05-20T18:02:24.272Z,19.70
2019-05-20T18:04:51.747Z,19.50
2019-05-20T18:07:19.263Z,19.50
2019-05-20T18:09:46.806Z,19.30
2019-05-20T18:12:14.298Z,19.30
2019-05-20T18:14:41.805Z,19.20
2019-05-20T18:17:23.491Z,19.10
2019-05-20T18:19:50.250Z,19.10
2019-05-20T18:22:17.072Z,19.00
2019-05-20T18:24:43.861Z,18.90
2019-05-20T18:27:10.680Z,18.90
2019-05-20T18:29:37.436Z,18.80
2019-05-20T18:32:04.190Z,18.60
2019-05-20T18:34:31.662Z,18.50
2019-05-20T18:36:59.188Z,18.50
2019-05-20T18:39:25.939Z,18.50
2019-05-20T18:41:52.661Z,18.40
2019-05-20T18:44:19.730Z,18.30
2019-05-20T18:46:47.204Z,18.00
2019-05-20T18:49:14.704Z,17.90
2019-05-20T18:51:41.475Z,17.90
2019-05-20T18:54:08.550Z,17.70
2019-05-20T18:56:36.087Z,17.60
2019-05-20T18:59:03.556Z,17.60
2019-05-20T19:01:30.413Z,17.50
2019-05-20T19:03:57.964Z,17.40
2019-05-20T19:06:24.719Z,17.40
2019-05-20T19:08:52.197Z,17.20
2019-05-20T19:11:18.992Z,17.20
2019-05-20T19:13:45.665Z,17.10
2019-05-20T19:16:12.436Z,17.00
2019-05-20T19:18:39.215Z,16.80
2019-05-20T19:21:06.439Z,16.70
2019-05-20T19:23:33.177Z,16.60
2019-05-20T19:25:59.909Z,16.50
2019-05-20T19:28:26.657Z,16.30
2019-05-20T19:30:53.436Z,16.10
2019-05-20T19:33:20.170Z,16.00
2019-05-20T19:35:46.950Z,15.90
2019-05-20T19:38:14.351Z,15.80
2019-05-20T19:40:41.099Z,15.70
2019-05-20T19:43:07.840Z,15.50
2019-05-20T19:45:34.655Z,15.50
2019-05-20T19:48:01.379Z,15.30
2019-05-20T19:50:28.103Z,15.30
2019-05-20T19:52:55.662Z,15.00
2019-05-20T19:55:22.439Z,14.90
2019-05-20T19:57:49.131Z,14.90
2019-05-20T20:00:16.730Z,14.80
2019-05-20T20:02:43.481Z,14.70
2019-05-20T20:05:10.234Z,14.70
2019-05-20T20:07:37.104Z,14.60
2019-05-20T20:10:03.868Z,14.50
2019-05-20T20:12:30.553Z,14.50
2019-05-20T20:14:57.265Z,14.50
2019-05-20T20:17:24.035Z,14.30
2019-05-20T20:19:51.048Z,14.30
2019-05-20T20:22:18.255Z,14.30
2019-05-20T20:24:45.005Z,14.20
2019-05-20T20:27:11.725Z,14.20
2019-05-20T20:29:39.380Z,14.10
2019-05-20T20:32:06.100Z,14.00
2019-05-20T20:34:32.850Z,13.90
2019-05-20T20:37:00.126Z,13.80
2019-05-20T20:39:26.980Z,13.70
2019-05-20T20:41:53.763Z,13.70
2019-05-20T20:44:22.576Z,13.60
2019-05-20T20:46:49.534Z,13.60
2019-05-20T20:49:16.322Z,13.60
2019-05-20T20:51:44.339Z,13.60
2019-05-20T20:54:11.169Z,13.50
2019-05-20T20:56:38.023Z,13.50
2019-05-20T20:59:05.053Z,13.40
2019-05-20T21:01:31.714Z,13.40
2019-05-20T21:03:59.291Z,13.30
2019-05-20T21:06:26.051Z,13.20
2019-05-20T21:08:52.745Z,13.20
2019-05-20T21:11:21.093Z,13.20
2019-05-20T21:13:47.921Z,13.10
2019-05-20T21:16:15.363Z,13.10
2019-05-20T21:18:42.137Z,13.10
2019-05-20T21:21:08.957Z,13.00
2019-05-20T21:23:38.025Z,13.00
2019-05-20T21:26:02.490Z,13.00
2019-05-20T21:28:29.463Z,12.90
2019-05-20T21:30:57.633Z,12.80
2019-05-20T21:33:24.434Z,12.80
2019-05-20T21:35:51.278Z,12.80
2019-05-20T21:38:18.845Z,12.80
2019-05-20T21:40:46.719Z,12.70
2019-05-20T21:43:13.651Z,12.60
2019-05-20T21:45:40.390Z,12.60
2019-05-20T21:48:07.148Z,12.60
2019-05-20T21:50:33.897Z,12.60
2019-05-20T21:53:00.595Z,12.50
2019-05-20T21:55:28.058Z,12.40
2019-05-20T21:57:54.776Z,12.40
2019-05-20T22:00:21.612Z,12.40
2019-05-20T22:02:48.441Z,12.40
2019-05-20T22:05:15.486Z,12.30
2019-05-20T22:07:42.214Z,12.30
2019-05-20T22:10:09.028Z,12.30
2019-05-20T22:12:35.737Z,12.30
2019-05-20T22:15:02.569Z,12.20
2019-05-20T22:17:29.306Z,12.20
2019-05-20T22:19:55.992Z,12.10
2019-05-20T22:22:24.224Z,12.10
2019-05-20T22:24:51.048Z,12.10
2019-05-20T22:27:17.997Z,12.00
2019-05-20T22:29:44.719Z,12.00
2019-05-20T22:32:11.448Z,12.00
2019-05-20T22:34:38.180Z,12.00
2019-05-20T22:37:05.387Z,12.00
2019-05-20T22:39:32.829Z,12.10
2019-05-20T22:41:59.607Z,12.00
2019-05-20T22:44:26.478Z,12.10
2019-05-20T22:46:53.238Z,12.10
2019-05-20T22:49:20.810Z,12.20
2019-05-20T22:51:48.454Z,12.20
2019-05-20T22:54:15.491Z,12.20
2019-05-20T22:56:42.863Z,12.20
2019-05-20T22:59:10.028Z,12.20
2019-05-20T23:01:37.150Z,12.20
2019-05-20T23:04:04.288Z,12.20
2019-05-20T23:06:31.269Z,12.10
2019-05-20T23:08:58.722Z,12.20
2019-05-20T23:11:25.467Z,12.20
2019-05-20T23:13:52.522Z,12.30
2019-05-20T23:16:19.212Z,12.30
2019-05-20T23:18:45.982Z,12.30
2019-05-20T23:21:12.687Z,12.30
2019-05-20T23:23:39.441Z,12.40
2019-05-20T23:26:06.163Z,12.40
2019-05-20T23:28:33.638Z,12.30
2019-05-20T23:31:00.396Z,12.30
2019-05-20T23:33:27.088Z,12.30
2019-05-20T23:35:54.556Z,12.20
2019-05-20T23:38:21.297Z,12.20
2019-05-20T23:40:48.825Z,12.10
2019-05-20T23:43:16.010Z,12.10
2019-05-20T23:45:43.487Z,12.00
2019-05-20T23:48:10.188Z,12.00
2019-05-20T23:50:36.966Z,11.90
2019-05-20T23:53:03.670Z,11.90
2019-05-20T23:55:30.468Z,11.80
2019-05-20T23:57:57.413Z,11.80
